createdAt,value
2016-05-14T00:00:59.921Z,23.84
2016-05-14T00:01:59.908Z,23.75
2016-05-14T00:02:59.989Z,23.78
2016-05-14T00:03:59.944Z,23.78
2016-05-14T00:04:59.948Z,23.75
2016-05-14T00:05:59.637Z,23.81
2016-05-14T00:06:59.828Z,23.81
2016-05-14T00:08:00.002Z,23.75
2016-05-14T00:08:59.990Z,23.84
2016-05-14T00:09:59.851Z,23.79
2016-05-14T00:11:00.010Z,23.78
2016-05-14T00:12:00.013Z,23.75
2016-05-14T00:13:00.047Z,23.77
2016-05-14T00:14:00.035Z,23.75
2016-05-14T00:15:00.037Z,23.75
2016-05-14T00:16:00.055Z,23.82
2016-05-14T00:16:59.932Z,23.78
2016-05-14T00:18:00.155Z,23.77
2016-05-14T00:19:00.110Z,23.79
2016-05-14T00:20:00.488Z,23.81
2016-05-14T00:21:00.131Z,23.77
2016-05-14T00:22:00.118Z,23.79
2016-05-14T00:23:00.137Z,23.77
2016-05-14T00:23:59.984Z,23.81
2016-05-14T00:25:00.158Z,23.78
2016-05-14T00:26:00.160Z,23.77
2016-05-14T00:27:00.178Z,23.78
2016-05-14T00:28:00.197Z,23.81
2016-05-14T00:29:00.184Z,23.77
2016-05-14T00:30:00.061Z,23.79
2016-05-14T00:31:00.220Z,23.79
2016-05-14T00:32:00.067Z,23.74
2016-05-14T00:33:00.398Z,23.75
2016-05-14T00:34:00.275Z,23.77
2016-05-14T00:35:00.105Z,23.75
2016-05-14T00:35:59.953Z,23.72
2016-05-14T00:37:00.299Z,23.77
2016-05-14T00:38:00.271Z,23.74
2016-05-14T00:39:00.289Z,23.74
2016-05-14T00:40:00.291Z,23.78
2016-05-14T00:41:00.154Z,23.77
2016-05-14T00:42:00.313Z,23.74
2016-05-14T00:43:00.331Z,23.72
2016-05-14T00:44:00.334Z,23.78
2016-05-14T00:45:00.367Z,23.79
2016-05-14T00:46:00.215Z,23.74
2016-05-14T00:47:00.374Z,23.77
2016-05-14T00:48:00.766Z,23.72
2016-05-14T00:49:00.394Z,23.77
2016-05-14T00:50:00.396Z,23.72
2016-05-14T00:51:00.415Z,23.75
2016-05-14T00:52:00.448Z,23.71
2016-05-14T00:53:00.420Z,23.75
2016-05-14T00:54:00.470Z,23.71
2016-05-14T00:55:00.457Z,23.74
2016-05-14T00:56:00.320Z,23.64
2016-05-14T00:57:00.478Z,23.74
2016-05-14T00:58:00.511Z,23.67
2016-05-14T00:59:00.499Z,23.71
2016-05-14T01:00:00.345Z,23.78
2016-05-14T01:01:00.520Z,23.67
2016-05-14T01:02:00.367Z,23.7
2016-05-14T01:03:00.541Z,23.67
2016-05-14T01:04:00.544Z,23.67
2016-05-14T01:05:00.546Z,23.71
2016-05-14T01:06:00.580Z,23.67
2016-05-14T01:07:00.567Z,23.78
2016-05-14T01:08:00.602Z,23.77
2016-05-14T01:09:00.589Z,23.75
2016-05-14T01:10:00.466Z,23.74
2016-05-14T01:11:00.453Z,23.63
2016-05-14T01:12:00.627Z,23.59
2016-05-14T01:13:00.646Z,23.63
2016-05-14T01:14:00.649Z,23.72
2016-05-14T01:15:00.338Z,23.67
2016-05-14T01:16:00.514Z,23.63
2016-05-14T01:17:00.673Z,23.62
2016-05-14T01:18:00.659Z,23.63
2016-05-14T01:19:00.569Z,23.72
2016-05-14T01:20:00.727Z,23.66
2016-05-14T01:21:00.401Z,23.63
2016-05-14T01:22:00.748Z,23.75
2016-05-14T01:23:00.751Z,23.72
2016-05-14T01:24:00.754Z,23.71
2016-05-14T01:25:00.787Z,23.56
2016-05-14T01:26:00.775Z,23.71
2016-05-14T01:27:00.778Z,23.6
2016-05-14T01:28:00.780Z,23.62
2016-05-14T01:29:00.814Z,23.7
2016-05-14T01:30:00.817Z,23.6
2016-05-14T01:31:00.836Z,23.62
2016-05-14T01:32:00.823Z,23.72
2016-05-14T01:33:01.247Z,23.7
2016-05-14T01:34:00.875Z,23.62
2016-05-14T01:35:00.878Z,23.7
2016-05-14T01:36:00.880Z,23.6
2016-05-14T01:37:00.882Z,23.7
2016-05-14T01:38:00.885Z,23.6
2016-05-14T01:39:21.122Z,23.59
2016-05-14T01:40:00.781Z,23.66
2016-05-14T01:41:00.908Z,23.62
2016-05-14T01:42:00.944Z,23.72
2016-05-14T01:43:00.960Z,23.64
2016-05-14T01:44:00.979Z,23.71
2016-05-14T01:45:00.966Z,23.64
2016-05-14T01:46:00.985Z,23.63
2016-05-14T01:47:00.988Z,23.6
2016-05-14T01:48:01.037Z,23.63
2016-05-14T01:49:00.993Z,23.67
2016-05-14T01:50:01.026Z,23.72
2016-05-14T01:51:00.874Z,23.72
2016-05-14T01:52:01.063Z,23.62
2016-05-14T01:53:01.051Z,23.62
2016-05-14T01:54:01.068Z,23.7
2016-05-14T01:55:01.056Z,23.64
2016-05-14T01:56:01.090Z,23.71
2016-05-14T01:57:01.076Z,23.66
2016-05-14T01:58:01.127Z,23.62
2016-05-14T01:59:00.957Z,23.7
2016-05-14T02:00:01.132Z,23.62
2016-05-14T02:01:00.978Z,23.59
2016-05-14T02:02:01.137Z,23.62
2016-05-14T02:03:00.984Z,23.63
2016-05-14T02:04:01.314Z,23.64
2016-05-14T02:05:01.020Z,23.62
2016-05-14T02:06:01.179Z,23.63
2016-05-14T02:07:00.885Z,23.59
2016-05-14T02:08:01.200Z,23.66
2016-05-14T02:09:01.063Z,23.56
2016-05-14T02:10:00.909Z,23.6
2016-05-14T02:11:01.114Z,23.59
2016-05-14T02:12:01.227Z,23.66
2016-05-14T02:13:01.260Z,23.62
2016-05-14T02:14:01.247Z,23.6
2016-05-14T02:15:01.110Z,23.62
2016-05-14T02:16:01.285Z,23.59
2016-05-14T02:17:01.288Z,23.59
2016-05-14T02:18:01.305Z,23.6
2016-05-14T02:19:01.308Z,23.62
2016-05-14T02:20:01.326Z,23.56
2016-05-14T02:21:01.173Z,23.55
2016-05-14T02:22:01.348Z,23.56
2016-05-14T02:23:01.365Z,23.59
2016-05-14T02:24:01.415Z,23.57
2016-05-14T02:25:01.371Z,23.59
2016-05-14T02:26:01.234Z,23.55
2016-05-14T02:27:01.392Z,23.56
2016-05-14T02:28:01.253Z,23.56
2016-05-14T02:29:01.257Z,23.6
2016-05-14T02:30:01.432Z,23.59
2016-05-14T02:31:01.450Z,23.57
2016-05-14T02:32:01.437Z,23.63
2016-05-14T02:33:01.299Z,23.6
2016-05-14T02:34:01.317Z,23.56
2016-05-14T02:35:01.476Z,23.57
2016-05-14T02:36:01.478Z,23.57
2016-05-14T02:37:01.169Z,23.59
2016-05-14T02:38:01.500Z,23.56
2016-05-14T02:39:01.519Z,23.55
2016-05-14T02:40:01.287Z,23.56
2016-05-14T02:41:01.383Z,23.55
2016-05-14T02:42:01.369Z,23.57
2016-05-14T02:43:01.404Z,23.57
2016-05-14T02:44:01.407Z,23.59
2016-05-14T02:45:01.581Z,23.59
2016-05-14T02:46:01.412Z,23.56
2016-05-14T02:47:01.618Z,23.57
2016-05-14T02:48:01.589Z,23.56
2016-05-14T02:49:01.732Z,23.55
2016-05-14T02:50:01.485Z,23.56
2016-05-14T02:51:01.628Z,23.57
2016-05-14T02:52:01.631Z,23.57
2016-05-14T02:53:01.510Z,23.57
2016-05-14T02:54:01.651Z,23.57
2016-05-14T02:55:01.654Z,23.59
2016-05-14T02:56:01.673Z,23.55
2016-05-14T02:57:01.707Z,23.55
2016-05-14T02:58:01.695Z,23.59
2016-05-14T02:59:01.712Z,23.63
2016-05-14T03:00:01.731Z,23.56
2016-05-14T03:01:01.748Z,23.53
2016-05-14T03:02:01.751Z,23.56
2016-05-14T03:03:01.770Z,23.56
2016-05-14T03:04:01.461Z,23.56
2016-05-14T03:05:01.650Z,23.56
2016-05-14T03:06:01.622Z,23.5
2016-05-14T03:07:01.797Z,23.56
2016-05-14T03:08:01.658Z,23.56
2016-05-14T03:09:01.833Z,23.59
2016-05-14T03:10:01.648Z,23.57
2016-05-14T03:11:01.822Z,23.56
2016-05-14T03:12:01.825Z,23.63
2016-05-14T03:13:01.860Z,23.55
2016-05-14T03:14:01.691Z,23.6
2016-05-14T03:15:01.880Z,23.59
2016-05-14T03:16:01.727Z,23.53
2016-05-14T03:17:01.902Z,23.56
2016-05-14T03:18:01.919Z,23.55
2016-05-14T03:19:01.610Z,23.56
2016-05-14T03:20:01.909Z,23.52
2016-05-14T03:21:01.943Z,23.56
2016-05-14T03:22:01.790Z,23.56
2016-05-14T03:23:01.965Z,23.63
2016-05-14T03:24:01.811Z,23.6
2016-05-14T03:25:01.970Z,23.56
2016-05-14T03:26:01.988Z,23.56
2016-05-14T03:27:01.990Z,23.56
2016-05-14T03:28:02.009Z,23.55
2016-05-14T03:29:02.012Z,23.53
2016-05-14T03:30:02.045Z,23.53
2016-05-14T03:31:02.034Z,23.55
2016-05-14T03:32:02.036Z,23.53
2016-05-14T03:33:02.070Z,23.56
2016-05-14T03:34:02.134Z,23.52
2016-05-14T03:35:01.919Z,23.56
2016-05-14T03:36:02.078Z,23.56
2016-05-14T03:37:02.095Z,23.53
2016-05-14T03:38:01.942Z,23.56
2016-05-14T03:39:02.117Z,23.53
2016-05-14T03:40:02.120Z,23.56
2016-05-14T03:41:01.966Z,23.55
2016-05-14T03:42:02.156Z,23.57
2016-05-14T03:43:02.175Z,23.5
2016-05-14T03:44:02.161Z,23.53
2016-05-14T03:45:02.008Z,23.52
2016-05-14T03:46:02.182Z,23.59
2016-05-14T03:47:02.201Z,23.55
2016-05-14T03:48:02.063Z,23.56
2016-05-14T03:49:02.096Z,23.5
2016-05-14T03:50:02.240Z,23.56
2016-05-14T03:51:02.243Z,23.59
2016-05-14T03:52:02.246Z,23.5
2016-05-14T03:53:02.248Z,23.52
2016-05-14T03:54:02.266Z,23.56
2016-05-14T03:55:02.113Z,23.52
2016-05-14T03:56:02.287Z,23.55
2016-05-14T03:57:02.291Z,23.56
2016-05-14T03:58:02.308Z,23.59
2016-05-14T03:59:02.295Z,23.59
2016-05-14T04:00:02.330Z,23.55
2016-05-14T04:01:02.332Z,23.6
2016-05-14T04:02:02.351Z,23.53
2016-05-14T04:03:02.197Z,23.59
2016-05-14T04:04:02.387Z,23.59
2016-05-14T04:05:02.203Z,23.55
2016-05-14T04:06:02.408Z,23.53
2016-05-14T04:07:02.395Z,23.53
2016-05-14T04:08:02.429Z,23.48
2016-05-14T04:09:02.417Z,23.52
2016-05-14T04:10:02.248Z,23.55
2016-05-14T04:11:02.422Z,23.53
2016-05-14T04:12:02.456Z,23.55
2016-05-14T04:13:02.458Z,23.52
2016-05-14T04:14:02.461Z,23.48
2016-05-14T04:15:02.338Z,23.52
2016-05-14T04:16:02.497Z,23.55
2016-05-14T04:17:02.344Z,23.52
2016-05-14T04:18:02.519Z,23.53
2016-05-14T04:19:02.708Z,23.5
2016-05-14T04:20:02.358Z,23.5
2016-05-14T04:21:02.592Z,23.53
2016-05-14T04:22:02.652Z,23.5
2016-05-14T04:23:02.683Z,23.56
2016-05-14T04:24:02.759Z,23.48
2016-05-14T04:25:02.785Z,23.5
2016-05-14T04:26:02.804Z,23.53
2016-05-14T04:27:02.837Z,23.55
2016-05-14T04:28:02.887Z,23.47
2016-05-14T04:29:02.921Z,23.53
2016-05-14T04:30:02.921Z,23.56
2016-05-14T04:31:02.930Z,23.56
2016-05-14T04:32:02.938Z,23.53
2016-05-14T04:33:02.978Z,23.5
2016-05-14T04:34:02.986Z,23.5
2016-05-14T04:35:02.838Z,23.45
2016-05-14T04:36:02.859Z,23.52
2016-05-14T04:37:03.036Z,23.56
2016-05-14T04:38:03.024Z,23.48
2016-05-14T04:39:03.060Z,23.53
2016-05-14T04:40:03.064Z,23.53
2016-05-14T04:41:03.084Z,23.5
2016-05-14T04:42:02.946Z,23.5
2016-05-14T04:43:03.106Z,23.47
2016-05-14T04:44:02.938Z,23.53
2016-05-14T04:45:03.098Z,23.55
2016-05-14T04:46:03.115Z,23.57
2016-05-14T04:47:02.823Z,23.55
2016-05-14T04:48:03.121Z,23.59
2016-05-14T04:49:03.157Z,23.55
2016-05-14T04:50:03.144Z,23.55
2016-05-14T04:51:03.177Z,23.53
2016-05-14T04:52:03.196Z,23.57
2016-05-14T04:53:03.198Z,23.53
2016-05-14T04:54:03.201Z,23.5
2016-05-14T04:55:03.063Z,23.53
2016-05-14T04:56:03.254Z,23.56
2016-05-14T04:57:03.085Z,23.48
2016-05-14T04:58:03.259Z,23.56
2016-05-14T04:59:03.246Z,23.5
2016-05-14T05:00:03.248Z,23.53
2016-05-14T05:01:03.111Z,23.5
2016-05-14T05:02:03.285Z,23.55
2016-05-14T05:03:03.303Z,23.57
2016-05-14T05:04:03.745Z,23.45
2016-05-14T05:05:03.325Z,23.55
2016-05-14T05:06:03.328Z,23.55
2016-05-14T05:07:03.331Z,23.48
2016-05-14T05:08:03.348Z,23.57
2016-05-14T05:09:03.351Z,23.48
2016-05-14T05:10:03.385Z,23.5
2016-05-14T05:11:03.372Z,23.53
2016-05-14T05:12:03.375Z,23.47
2016-05-14T05:13:03.378Z,23.53
2016-05-14T05:14:03.256Z,23.53
2016-05-14T05:15:03.414Z,23.55
2016-05-14T05:16:03.277Z,23.5
2016-05-14T05:17:03.419Z,23.5
2016-05-14T05:18:03.297Z,23.56
2016-05-14T05:19:04.034Z,23.57
2016-05-14T05:20:03.319Z,23.56
2016-05-14T05:21:03.461Z,23.53
2016-05-14T05:22:03.511Z,23.55
2016-05-14T05:23:03.499Z,23.47
2016-05-14T05:24:03.594Z,23.53
2016-05-14T05:25:03.504Z,23.59
2016-05-14T05:26:03.521Z,23.52
2016-05-14T05:27:03.540Z,23.48
2016-05-14T05:28:03.559Z,23.45
2016-05-14T05:29:03.562Z,23.56
2016-05-14T05:30:03.564Z,23.56
2016-05-14T05:31:03.426Z,23.52
2016-05-14T05:32:03.585Z,23.55
2016-05-14T05:33:03.447Z,23.55
2016-05-14T05:34:03.434Z,23.63
2016-05-14T05:35:03.609Z,23.53
2016-05-14T05:36:03.455Z,23.55
2016-05-14T05:37:03.645Z,23.59
2016-05-14T05:38:03.632Z,23.56
2016-05-14T05:39:03.650Z,23.59
2016-05-14T05:40:03.684Z,23.53
2016-05-14T05:41:03.655Z,23.57
2016-05-14T05:42:03.689Z,23.57
2016-05-14T05:43:03.709Z,23.53
2016-05-14T05:44:03.711Z,23.52
2016-05-14T05:45:03.730Z,23.55
2016-05-14T05:46:03.716Z,23.6
2016-05-14T05:47:03.735Z,23.57
2016-05-14T05:48:03.753Z,23.57
2016-05-14T05:49:04.240Z,23.56
2016-05-14T05:50:03.758Z,23.55
2016-05-14T05:51:03.776Z,23.56
2016-05-14T05:52:03.780Z,23.52
2016-05-14T05:53:03.642Z,23.56
2016-05-14T05:54:03.644Z,23.59
2016-05-14T05:55:03.819Z,23.55
2016-05-14T05:56:03.821Z,23.53
2016-05-14T05:57:03.840Z,23.56
2016-05-14T05:58:03.671Z,23.59
2016-05-14T05:59:03.845Z,23.56
2016-05-14T06:00:03.848Z,23.59
2016-05-14T06:01:03.881Z,23.6
2016-05-14T06:02:03.869Z,23.57
2016-05-14T06:03:03.887Z,23.59
2016-05-14T06:04:03.749Z,23.55
2016-05-14T06:05:03.924Z,23.56
2016-05-14T06:06:03.754Z,23.53
2016-05-14T06:07:03.945Z,23.57
2016-05-14T06:08:03.932Z,23.56
2016-05-14T06:09:03.981Z,23.59
2016-05-14T06:10:03.812Z,23.59
2016-05-14T06:11:03.986Z,23.56
2016-05-14T06:12:03.973Z,23.57
2016-05-14T06:13:04.008Z,23.56
2016-05-14T06:14:03.995Z,23.57
2016-05-14T06:15:04.014Z,23.57
2016-05-14T06:16:03.859Z,23.62
2016-05-14T06:17:04.050Z,23.71
2016-05-14T06:18:04.021Z,23.59
2016-05-14T06:19:05.305Z,23.59
2016-05-14T06:20:04.073Z,23.57
2016-05-14T06:21:04.076Z,23.59
2016-05-14T06:22:04.079Z,23.62
2016-05-14T06:23:03.941Z,23.64
2016-05-14T06:24:03.803Z,23.71
2016-05-14T06:25:04.133Z,23.6
2016-05-14T06:26:04.136Z,23.62
2016-05-14T06:27:04.154Z,23.64
2016-05-14T06:28:04.126Z,23.72
2016-05-14T06:29:04.160Z,23.66
2016-05-14T06:30:04.162Z,23.66
2016-05-14T06:31:04.165Z,23.62
2016-05-14T06:32:04.184Z,23.71
2016-05-14T06:33:04.187Z,23.66
2016-05-14T06:34:04.377Z,23.72
2016-05-14T06:35:04.239Z,23.74
2016-05-14T06:36:04.242Z,23.74
2016-05-14T06:37:04.244Z,23.74
2016-05-14T06:38:04.262Z,23.67
2016-05-14T06:39:04.265Z,23.64
2016-05-14T06:40:04.267Z,23.75
2016-05-14T06:41:04.286Z,23.71
2016-05-14T06:42:04.303Z,23.64
2016-05-14T06:43:04.291Z,23.67
2016-05-14T06:44:04.310Z,23.66
2016-05-14T06:45:04.328Z,23.7
2016-05-14T06:46:04.347Z,23.7
2016-05-14T06:47:04.349Z,23.74
2016-05-14T06:48:04.367Z,23.75
2016-05-14T06:49:04.527Z,23.75
2016-05-14T06:50:04.372Z,23.67
2016-05-14T06:51:04.375Z,23.72
2016-05-14T06:52:04.377Z,23.79
2016-05-14T06:53:04.397Z,23.77
2016-05-14T06:54:04.416Z,23.77
2016-05-14T06:55:04.246Z,23.77
2016-05-14T06:56:04.264Z,23.77
2016-05-14T06:57:04.298Z,23.77
2016-05-14T06:58:04.426Z,23.82
2016-05-14T06:59:04.460Z,23.74
2016-05-14T07:00:04.462Z,23.78
2016-05-14T07:01:04.480Z,23.79
2016-05-14T07:02:04.482Z,23.74
2016-05-14T07:03:04.501Z,23.78
2016-05-14T07:04:04.832Z,23.82
2016-05-14T07:05:04.522Z,23.78
2016-05-14T07:06:04.541Z,23.78
2016-05-14T07:07:04.543Z,23.75
2016-05-14T07:08:04.390Z,23.74
2016-05-14T07:09:04.581Z,23.72
2016-05-14T07:10:04.426Z,23.78
2016-05-14T07:11:04.586Z,23.74
2016-05-14T07:12:04.603Z,23.81
2016-05-14T07:13:04.591Z,23.79
2016-05-14T07:14:04.625Z,23.78
2016-05-14T07:15:04.628Z,23.74
2016-05-14T07:16:04.646Z,23.75
2016-05-14T07:17:04.633Z,23.77
2016-05-14T07:18:04.495Z,23.75
2016-05-14T07:19:04.779Z,23.75
2016-05-14T07:20:04.672Z,23.79
2016-05-14T07:21:04.675Z,23.78
2016-05-14T07:22:04.693Z,23.75
2016-05-14T07:23:04.696Z,23.81
2016-05-14T07:24:04.714Z,23.77
2016-05-14T07:25:04.545Z,23.77
2016-05-14T07:26:04.595Z,23.75
2016-05-14T07:27:04.768Z,23.82
2016-05-14T07:28:04.444Z,23.81
2016-05-14T07:29:04.447Z,23.78
2016-05-14T07:30:04.777Z,23.81
2016-05-14T07:31:04.468Z,23.84
2016-05-14T07:32:04.798Z,23.79
2016-05-14T07:33:04.801Z,23.82
2016-05-14T07:34:05.476Z,23.84
2016-05-14T07:35:04.821Z,23.85
2016-05-14T07:36:04.856Z,23.87
2016-05-14T07:37:04.687Z,23.82
2016-05-14T07:38:04.862Z,23.9
2016-05-14T07:39:04.865Z,23.84
2016-05-14T07:40:04.882Z,23.82
2016-05-14T07:41:04.885Z,23.84
2016-05-14T07:42:04.872Z,23.9
2016-05-14T07:43:04.905Z,23.9
2016-05-14T07:44:04.909Z,23.99
2016-05-14T07:45:04.770Z,23.89
2016-05-14T07:46:04.914Z,23.92
2016-05-14T07:47:04.933Z,23.89
2016-05-14T07:48:04.982Z,23.97
2016-05-14T07:49:05.017Z,23.94
2016-05-14T07:50:04.987Z,23.94
2016-05-14T07:51:04.850Z,23.97
2016-05-14T07:52:05.008Z,23.87
2016-05-14T07:53:04.995Z,23.97
2016-05-14T07:54:04.858Z,23.94
2016-05-14T07:55:04.875Z,23.93
2016-05-14T07:56:05.050Z,23.97
2016-05-14T07:57:05.069Z,23.97
2016-05-14T07:58:05.040Z,23.96
2016-05-14T07:59:05.058Z,24
2016-05-14T08:00:05.093Z,23.93
2016-05-14T08:01:05.080Z,23.97
2016-05-14T08:02:04.941Z,23.9
2016-05-14T08:03:05.116Z,24
2016-05-14T08:04:05.135Z,23.94
2016-05-14T08:05:04.965Z,24.02
2016-05-14T08:06:05.140Z,23.89
2016-05-14T08:07:05.126Z,23.94
2016-05-14T08:08:05.160Z,23.94
2016-05-14T08:09:05.163Z,23.99
2016-05-14T08:10:05.166Z,23.94
2016-05-14T08:11:05.185Z,23.97
2016-05-14T08:12:05.218Z,23.92
2016-05-14T08:13:05.205Z,23.94
2016-05-14T08:14:05.223Z,23.93
2016-05-14T08:15:05.242Z,23.94
2016-05-14T08:16:05.245Z,23.97
2016-05-14T08:17:05.091Z,24.09
2016-05-14T08:18:05.125Z,23.99
2016-05-14T08:19:05.409Z,23.97
2016-05-14T08:20:05.286Z,24.02
2016-05-14T08:21:05.289Z,24.03
2016-05-14T08:22:05.308Z,23.99
2016-05-14T08:23:05.155Z,24.07
2016-05-14T08:24:05.344Z,24
2016-05-14T08:25:05.316Z,24.02
2016-05-14T08:26:05.334Z,24.02
2016-05-14T08:27:05.352Z,24.02
2016-05-14T08:28:05.371Z,24.02
2016-05-14T08:29:05.373Z,24
2016-05-14T08:30:05.376Z,23.99
2016-05-14T08:31:05.379Z,24.02
2016-05-14T08:32:05.397Z,24
2016-05-14T08:33:05.463Z,24.04
2016-05-14T08:34:05.419Z,24.02
2016-05-14T08:35:05.452Z,24.02
2016-05-14T08:36:05.315Z,24.03
2016-05-14T08:37:05.457Z,24.03
2016-05-14T08:38:05.320Z,24.07
2016-05-14T08:39:05.479Z,24.02
2016-05-14T08:40:05.496Z,24.04
2016-05-14T08:41:05.484Z,24.07
2016-05-14T08:42:05.534Z,24.03
2016-05-14T08:43:05.364Z,24.03
2016-05-14T08:44:05.539Z,23.97
2016-05-14T08:45:05.385Z,24.02
2016-05-14T08:46:05.388Z,24.08
2016-05-14T08:47:05.562Z,24.02
2016-05-14T08:48:05.565Z,24.08
2016-05-14T08:49:06.162Z,24.03
2016-05-14T08:50:05.586Z,24.04
2016-05-14T08:51:05.620Z,24
2016-05-14T08:52:05.591Z,24.07
2016-05-14T08:53:05.625Z,24.11
2016-05-14T08:54:05.472Z,24.03
2016-05-14T08:55:05.631Z,24.02
2016-05-14T08:56:05.633Z,24
2016-05-14T08:57:05.667Z,24.08
2016-05-14T08:58:05.514Z,24.03
2016-05-14T08:59:05.689Z,24.02
2016-05-14T09:00:05.691Z,24.12
2016-05-14T09:01:05.694Z,24.07
2016-05-14T09:02:05.571Z,24.09
2016-05-14T09:03:05.730Z,24.11
2016-05-14T09:04:05.749Z,24.03
2016-05-14T09:05:05.751Z,24.03
2016-05-14T09:06:05.770Z,24.03
2016-05-14T09:07:05.772Z,24.07
2016-05-14T09:08:05.760Z,24.03
2016-05-14T09:09:05.794Z,24.03
2016-05-14T09:10:05.656Z,24
2016-05-14T09:11:05.799Z,23.99
2016-05-14T09:12:05.801Z,24.09
2016-05-14T09:13:05.679Z,24.03
2016-05-14T09:14:05.682Z,24.08
2016-05-14T09:15:05.684Z,24.03
2016-05-14T09:16:05.843Z,24.04
2016-05-14T09:17:05.861Z,24.03
2016-05-14T09:18:05.864Z,24.08
2016-05-14T09:19:06.227Z,24.04
2016-05-14T09:20:05.900Z,24.11
2016-05-14T09:21:05.889Z,24
2016-05-14T09:22:05.922Z,24.08
2016-05-14T09:23:05.925Z,24.04
2016-05-14T09:24:05.959Z,24.11
2016-05-14T09:25:05.946Z,24.11
2016-05-14T09:26:05.964Z,24.08
2016-05-14T09:27:05.966Z,24.08
2016-05-14T09:28:05.985Z,24.11
2016-05-14T09:29:05.972Z,24.04
2016-05-14T09:30:06.037Z,24.08
2016-05-14T09:31:06.009Z,24.09
2016-05-14T09:32:05.855Z,24.11
2016-05-14T09:33:06.014Z,24.09
2016-05-14T09:34:06.471Z,24.18
2016-05-14T09:35:05.894Z,24.08
2016-05-14T09:36:06.069Z,24.12
2016-05-14T09:37:05.915Z,24.17
2016-05-14T09:38:06.074Z,24.19
2016-05-14T09:39:06.077Z,24.11
2016-05-14T09:40:05.954Z,24.14
2016-05-14T09:41:06.098Z,24.15
2016-05-14T09:42:06.131Z,24.12
2016-05-14T09:43:06.134Z,24.21
2016-05-14T09:44:06.138Z,24.09
2016-05-14T09:45:06.171Z,24.21
2016-05-14T09:46:06.174Z,24.15
2016-05-14T09:47:06.176Z,24.07
2016-05-14T09:48:06.008Z,24.09
2016-05-14T09:49:06.292Z,24.07
2016-05-14T09:50:06.200Z,24.17
2016-05-14T09:51:06.078Z,24.11
2016-05-14T09:52:06.065Z,24.18
2016-05-14T09:53:06.224Z,24.12
2016-05-14T09:54:06.242Z,24.11
2016-05-14T09:55:06.089Z,24.09
2016-05-14T09:56:06.264Z,24.09
2016-05-14T09:57:06.125Z,24.11
2016-05-14T09:58:06.285Z,24.22
2016-05-14T09:59:06.319Z,24.17
2016-05-14T10:00:06.321Z,24.17
2016-05-14T10:01:06.324Z,24.12
2016-05-14T10:02:06.202Z,24.21
2016-05-14T10:03:06.360Z,24.21
2016-05-14T10:04:07.285Z,24.14
2016-05-14T10:05:06.366Z,24.17
2016-05-14T10:06:06.368Z,24.11
2016-05-14T10:07:06.387Z,24.11
2016-05-14T10:08:06.421Z,24.11
2016-05-14T10:09:06.393Z,24.24
2016-05-14T10:10:06.271Z,24.12
2016-05-14T10:11:06.412Z,24.09
2016-05-14T10:12:06.291Z,24.17
2016-05-14T10:13:06.294Z,24.18
2016-05-14T10:14:06.453Z,24.22
2016-05-14T10:15:06.456Z,24.26
2016-05-14T10:16:06.333Z,24.18
2016-05-14T10:17:06.476Z,24.21
2016-05-14T10:18:06.479Z,24.21
2016-05-14T10:19:06.606Z,24.19
2016-05-14T10:20:06.531Z,24.24
2016-05-14T10:21:06.361Z,24.14
2016-05-14T10:22:06.395Z,24.18
2016-05-14T10:23:06.556Z,24.17
2016-05-14T10:24:06.417Z,24.22
2016-05-14T10:25:06.561Z,24.19
2016-05-14T10:26:06.610Z,24.3
2016-05-14T10:27:06.581Z,24.24
2016-05-14T10:28:06.459Z,24.27
2016-05-14T10:29:06.602Z,24.29
2016-05-14T10:30:06.621Z,24.27
2016-05-14T10:31:06.452Z,24.26
2016-05-14T10:32:06.641Z,24.24
2016-05-14T10:33:06.472Z,24.27
2016-05-14T10:34:06.663Z,24.26
2016-05-14T10:35:06.680Z,24.18
2016-05-14T10:36:06.683Z,24.26
2016-05-14T10:37:06.733Z,24.3
2016-05-14T10:38:06.533Z,24.26
2016-05-14T10:39:06.536Z,24.27
2016-05-14T10:40:06.554Z,24.3
2016-05-14T10:41:06.588Z,24.29
2016-05-14T10:42:06.575Z,24.26
2016-05-14T10:43:06.749Z,24.26
2016-05-14T10:44:06.612Z,24.32
2016-05-14T10:45:06.801Z,24.15
2016-05-14T10:46:06.820Z,24.22
2016-05-14T10:47:06.792Z,24.21
2016-05-14T10:48:06.825Z,24.32
2016-05-14T10:49:06.828Z,24.3
2016-05-14T10:50:06.845Z,24.27
2016-05-14T10:51:06.833Z,24.32
2016-05-14T10:52:06.852Z,24.3
2016-05-14T10:53:06.870Z,24.33
2016-05-14T10:54:06.856Z,24.33
2016-05-14T10:55:06.703Z,24.37
2016-05-14T10:56:06.878Z,24.4
2016-05-14T10:57:06.897Z,24.45
2016-05-14T10:58:06.883Z,24.48
2016-05-14T10:59:06.933Z,24.59
2016-05-14T11:00:06.905Z,24.54
2016-05-14T11:01:06.955Z,24.61
2016-05-14T11:02:06.941Z,24.61
2016-05-14T11:03:06.788Z,24.54
2016-05-14T11:04:06.962Z,24.58
2016-05-14T11:05:06.996Z,24.58
2016-05-14T11:06:06.983Z,24.52
2016-05-14T11:07:07.001Z,24.56
2016-05-14T11:08:07.005Z,24.58
2016-05-14T11:09:07.006Z,24.52
2016-05-14T11:10:07.040Z,24.55
2016-05-14T11:11:07.060Z,24.49
2016-05-14T11:12:06.905Z,24.49
2016-05-14T11:13:06.924Z,24.49
2016-05-14T11:14:07.082Z,24.54
2016-05-14T11:15:07.101Z,24.45
2016-05-14T11:16:07.104Z,24.39
2016-05-14T11:17:07.123Z,24.4
2016-05-14T11:18:07.109Z,24.34
2016-05-14T11:19:07.174Z,24.36
2016-05-14T11:20:07.131Z,24.36
2016-05-14T11:21:07.164Z,24.42
2016-05-14T11:22:07.167Z,24.42
2016-05-14T11:23:07.184Z,24.37
2016-05-14T11:24:07.016Z,24.37
2016-05-14T11:25:07.190Z,24.36
2016-05-14T11:26:07.209Z,24.39
2016-05-14T11:27:07.056Z,24.42
2016-05-14T11:28:07.230Z,24.54
2016-05-14T11:29:07.075Z,24.45
2016-05-14T11:30:07.250Z,24.45
2016-05-14T11:31:07.081Z,24.42
2016-05-14T11:32:07.272Z,24.49
2016-05-14T11:33:07.118Z,24.37
2016-05-14T11:34:07.605Z,24.4
2016-05-14T11:35:07.311Z,24.42
2016-05-14T11:36:07.314Z,24.42
2016-05-14T11:37:07.316Z,24.52
2016-05-14T11:38:07.335Z,24.45
2016-05-14T11:39:07.338Z,24.44
2016-05-14T11:40:07.340Z,24.48
2016-05-14T11:41:07.374Z,24.42
2016-05-14T11:42:07.376Z,24.63
2016-05-14T11:43:07.363Z,24.55
2016-05-14T11:44:07.241Z,24.64
2016-05-14T11:45:07.401Z,24.63
2016-05-14T11:46:07.262Z,24.55
2016-05-14T11:47:07.265Z,24.64
2016-05-14T11:48:07.440Z,24.54
2016-05-14T11:49:07.896Z,24.58
2016-05-14T11:50:07.476Z,24.52
2016-05-14T11:51:07.307Z,24.59
2016-05-14T11:52:07.482Z,24.58
2016-05-14T11:53:07.313Z,24.52
2016-05-14T11:54:07.331Z,24.59
2016-05-14T11:55:07.521Z,24.59
2016-05-14T11:56:07.383Z,24.71
2016-05-14T11:57:07.370Z,24.75
2016-05-14T11:58:07.545Z,24.71
2016-05-14T11:59:07.547Z,24.69
2016-05-14T12:00:07.566Z,24.64
2016-05-14T12:01:07.599Z,24.75
2016-05-14T12:02:07.602Z,24.77
2016-05-14T12:03:07.589Z,24.75
2016-05-14T12:04:07.936Z,24.74
2016-05-14T12:05:07.610Z,24.75
2016-05-14T12:06:07.644Z,24.83
2016-05-14T12:07:07.632Z,24.8
2016-05-14T12:08:07.649Z,24.89
2016-05-14T12:09:07.653Z,24.82
2016-05-14T12:10:07.639Z,24.8
2016-05-14T12:11:07.517Z,24.8
2016-05-14T12:12:07.691Z,24.89
2016-05-14T12:13:07.710Z,24.82
2016-05-14T12:14:07.713Z,24.9
2016-05-14T12:15:07.732Z,24.77
2016-05-14T12:16:07.719Z,24.87
2016-05-14T12:17:07.596Z,24.78
2016-05-14T12:18:07.740Z,24.87
2016-05-14T12:19:07.835Z,24.93
2016-05-14T12:20:07.620Z,24.9
2016-05-14T12:21:07.795Z,24.9
2016-05-14T12:22:07.797Z,24.87
2016-05-14T12:23:07.815Z,25
2016-05-14T12:24:07.818Z,24.97
2016-05-14T12:25:07.836Z,24.96
2016-05-14T12:26:07.854Z,24.97
2016-05-14T12:27:07.857Z,24.96
2016-05-14T12:28:07.859Z,24.92
2016-05-14T12:29:07.878Z,24.9
2016-05-14T12:30:07.865Z,24.94
2016-05-14T12:31:07.883Z,24.96
2016-05-14T12:32:07.886Z,24.9
2016-05-14T12:33:07.763Z,24.93
2016-05-14T12:34:07.969Z,24.92
2016-05-14T12:35:07.941Z,25.05
2016-05-14T12:36:07.788Z,25.07
2016-05-14T12:37:07.962Z,25.02
2016-05-14T12:38:07.965Z,25.01
2016-05-14T12:39:07.843Z,25.04
2016-05-14T12:40:07.674Z,25.07
2016-05-14T12:41:08.005Z,25.09
2016-05-14T12:42:08.007Z,25.15
2016-05-14T12:43:08.010Z,25.12
2016-05-14T12:44:08.028Z,25.15
2016-05-14T12:45:08.030Z,25.19
2016-05-14T12:46:08.065Z,25.14
2016-05-14T12:47:08.082Z,25.23
2016-05-14T12:48:08.101Z,25.2
2016-05-14T12:49:07.932Z,25.17
2016-05-14T12:50:08.137Z,25.19
2016-05-14T12:51:08.110Z,25.24
2016-05-14T12:52:07.987Z,25.2
2016-05-14T12:53:07.958Z,25.22
2016-05-14T12:54:08.133Z,25.34
2016-05-14T12:55:08.167Z,25.27
2016-05-14T12:56:08.154Z,25.29